Time;durP1;ratioP1;P1;durP2;ratioP2;P2;SDS_P1;SDS_P2;PMS_P1;PMS_P2;Temp;Humidity;BMP_temperature;BMP_pressure;BME280_temperature;BME280_humidity;BME280_pressure;Samples;Min_cycle;Max_cycle;Signal;HPM_P1;HPM_P2
2023/01/04 00:00:42;;;;;;;10.20;5.50;;;;;;;;;;5053944;28;20053;-42
2023/01/04 00:03:07;;;;;;;7.88;4.13;;;;;;;;;;5054161;28;20372;-42
2023/01/04 00:05:33;;;;;;;11.52;6.45;;;;;;;;;;5054264;28;20403;-43
2023/01/04 00:07:58;;;;;;;10.95;6.53;;;;;;;;;;5053738;28;20132;-42
2023/01/04 00:10:23;;;;;;;9.13;5.53;;;;;;;;;;5053842;28;20017;-42
2023/01/04 00:12:49;;;;;;;10.25;5.95;;;;;;;;;;5053807;28;20025;-42
2023/01/04 00:15:14;;;;;;;9.57;4.88;;;;;;;;;;5053575;28;20052;-42
2023/01/04 00:17:39;;;;;;;10.07;5.35;;;;;;;;;;5054095;28;20037;-42
2023/01/04 00:20:05;;;;;;;9.85;5.45;;;;;;;;;;5053608;28;20474;-42
2023/01/04 00:22:33;;;;;;;15.95;5.88;;;;;;;;;;5053517;28;20029;-42
2023/01/04 00:24:59;;;;;;;12.05;5.45;;;;;;;;;;5053751;28;20028;-42
2023/01/04 00:27:24;;;;;;;11.18;5.57;;;;;;;;;;5053580;28;20086;-42
2023/01/04 00:29:49;;;;;;;10.70;5.53;;;;;;;;;;5053487;28;20489;-42
2023/01/04 00:32:15;;;;;;;11.25;5.22;;;;;;;;;;5052048;28;20021;-42
2023/01/04 00:34:40;;;;;;;13.70;7.20;;;;;;;;;;5053471;28;20578;-42
2023/01/04 00:37:06;;;;;;;8.52;5.95;;;;;;;;;;5053319;28;20029;-42
2023/01/04 00:39:31;;;;;;;9.73;5.18;;;;;;;;;;5053360;28;20344;-42
2023/01/04 00:42:03;;;;;;;9.80;5.82;;;;;;;;;;5053536;28;20459;-42
2023/01/04 00:44:30;;;;;;;8.73;4.28;;;;;;;;;;5053406;28;20392;-43
2023/01/04 00:46:55;;;;;;;11.57;5.85;;;;;;;;;;5053511;28;20028;-42
2023/01/04 00:49:21;;;;;;;12.70;5.93;;;;;;;;;;5053337;28;20033;-42
2023/01/04 00:51:46;;;;;;;9.20;5.25;;;;;;;;;;5052953;28;20056;-42
2023/01/04 00:54:13;;;;;;;10.50;6.20;;;;;;;;;;5052903;28;20033;-41
2023/01/04 00:56:38;;;;;;;13.55;7.10;;;;;;;;;;5053328;28;20017;-42
2023/01/04 00:59:04;;;;;;;9.38;5.30;;;;;;;;;;5052796;28;20063;-42
2023/01/04 01:01:30;;;;;;;13.15;4.70;;;;;;;;;;5052696;28;20071;-42
2023/01/04 01:03:57;;;;;;;11.65;5.68;;;;;;;;;;5052718;28;20091;-42
2023/01/04 01:06:23;;;;;;;9.85;5.60;;;;;;;;;;5052431;28;20044;-42
2023/01/04 01:08:49;;;;;;;8.18;4.88;;;;;;;;;;5053052;28;20025;-42
2023/01/04 01:11:14;;;;;;;8.90;5.53;;;;;;;;;;5052525;28;20082;-42
2023/01/04 01:13:40;;;;;;;10.27;5.10;;;;;;;;;;5052747;28;20040;-43
2023/01/04 01:16:07;;;;;;;8.43;5.65;;;;;;;;;;5052599;28;20510;-42
2023/01/04 01:18:33;;;;;;;8.55;4.85;;;;;;;;;;5051211;28;20062;-42
2023/01/04 01:20:59;;;;;;;9.68;5.78;;;;;;;;;;5052453;28;20119;-42
2023/01/04 01:23:24;;;;;;;9.00;4.57;;;;;;;;;;5052885;28;20167;-43
2023/01/04 01:25:49;;;;;;;11.18;4.93;;;;;;;;;;5052675;28;20055;-42
2023/01/04 01:28:15;;;;;;;7.22;4.85;;;;;;;;;;5052566;28;20053;-42
2023/01/04 01:30:41;;;;;;;10.48;5.07;;;;;;;;;;5052604;28;20478;-41
2023/01/04 01:33:06;;;;;;;8.05;4.85;;;;;;;;;;5052176;28;20037;-42
2023/01/04 01:35:33;;;;;;;6.93;4.00;;;;;;;;;;5052194;28;20023;-46
2023/01/04 01:37:58;;;;;;;7.22;4.25;;;;;;;;;;5052478;28;20039;-42
2023/01/04 01:40:23;;;;;;;14.25;6.90;;;;;;;;;;5052313;28;20475;-42
2023/01/04 01:42:49;;;;;;;8.65;4.53;;;;;;;;;;5050826;28;20037;-42
2023/01/04 01:45:26;;;;;;;9.55;5.38;;;;;;;;;;5052319;28;20036;-42
2023/01/04 01:47:55;;;;;;;7.40;5.20;;;;;;;;;;5051937;28;20086;-42
2023/01/04 01:50:24;;;;;;;11.10;4.80;;;;;;;;;;5051893;28;20071;-42
2023/01/04 01:52:50;;;;;;;8.85;4.80;;;;;;;;;;5052186;28;20029;-42
2023/01/04 01:55:16;;;;;;;11.68;5.82;;;;;;;;;;5052092;28;20040;-42
2023/01/04 01:57:42;;;;;;;9.18;4.20;;;;;;;;;;5052135;28;20064;-42
2023/01/04 02:00:11;;;;;;;11.18;5.22;;;;;;;;;;5051513;28;20090;-42
2023/01/04 02:02:43;;;;;;;15.63;6.43;;;;;;;;;;5051794;28;20033;-42
2023/01/04 02:05:09;;;;;;;11.18;5.97;;;;;;;;;;5051641;28;20514;-42
2023/01/04 02:07:35;;;;;;;7.30;4.57;;;;;;;;;;5051729;28;20041;-42
2023/01/04 02:10:00;;;;;;;9.55;5.35;;;;;;;;;;5051625;28;20391;-42
2023/01/04 02:12:26;;;;;;;10.50;5.93;;;;;;;;;;5050362;28;20048;-44
2023/01/04 02:14:51;;;;;;;10.88;4.10;;;;;;;;;;5051651;28;20135;-42
2023/01/04 02:17:33;;;;;;;9.45;3.65;;;;;;;;;;5049354;28;20074;-42
2023/01/04 02:19:58;;;;;;;9.50;4.45;;;;;;;;;;5051804;28;20029;-42
2023/01/04 02:22:56;;;;;;;10.25;4.82;;;;;;;;;;5051465;28;20028;-42
2023/01/04 02:25:30;;;;;;;10.95;5.60;;;;;;;;;;5039041;28;20461;-42
2023/01/04 02:28:16;;;;;;;6.78;4.10;;;;;;;;;;5051486;28;20017;-42
2023/01/04 02:30:54;;;;;;;9.85;4.32;;;;;;;;;;5047295;28;20453;-42
2023/01/04 02:33:42;;;;;;;10.38;5.18;;;;;;;;;;5051270;28;20105;-42
2023/01/04 02:36:14;;;;;;;6.35;3.83;;;;;;;;;;5051577;28;20047;-42
2023/01/04 02:38:51;;;;;;;7.65;4.95;;;;;;;;;;5051353;28;20044;-42
2023/01/04 02:41:28;;;;;;;8.35;4.80;;;;;;;;;;5051181;28;20094;-42
2023/01/04 02:46:52;;;;;;;9.00;4.60;;;;;;;;;;5051346;28;20060;-42
2023/01/04 02:52:01;;;;;;;8.18;4.35;;;;;;;;;;5051083;28;20079;-42
2023/01/04 02:54:31;;;;;;;9.55;4.78;;;;;;;;;;5051228;28;20422;-42
2023/01/04 02:56:59;;;;;;;8.88;3.65;;;;;;;;;;5051407;28;20021;-41
2023/01/04 02:59:25;;;;;;;5.53;4.03;;;;;;;;;;5051018;28;20103;-42
2023/01/04 03:07:54;;;;;;;7.25;3.28;;;;;;;;;;5051094;28;20040;-42
2023/01/04 03:10:39;;;;;;;11.75;3.80;;;;;;;;;;5050959;28;20052;-42
2023/01/04 03:13:17;;;;;;;6.20;3.65;;;;;;;;;;5050919;28;20480;-42
2023/01/04 03:15:44;;;;;;;6.10;3.17;;;;;;;;;;5051012;28;20562;-42
2023/01/04 03:18:19;;;;;;;4.20;2.83;;;;;;;;;;5049584;28;20017;-42
2023/01/04 03:20:45;;;;;;;6.78;3.03;;;;;;;;;;5049908;28;20051;-42
2023/01/04 03:37:04;;;;;;;8.77;4.25;;;;;;;;;;5054515;28;20060;-42
2023/01/04 03:50:43;;;;;;;6.30;2.85;;;;;;;;;;5054503;28;20086;-42
2023/01/04 03:53:09;;;;;;;6.53;3.75;;;;;;;;;;5054367;28;20021;-42
2023/01/04 03:55:36;;;;;;;5.30;2.72;;;;;;;;;;5054400;28;20440;-42
2023/01/04 03:58:01;;;;;;;7.90;3.92;;;;;;;;;;5054186;28;20055;-42
2023/01/04 04:00:27;;;;;;;7.25;2.90;;;;;;;;;;5054034;28;20487;-42
2023/01/04 04:02:52;;;;;;;4.80;3.17;;;;;;;;;;5054169;28;20202;-42
2023/01/04 04:10:47;;;;;;;6.82;4.00;;;;;;;;;;5052540;28;20395;-42
2023/01/04 04:13:12;;;;;;;4.50;2.85;;;;;;;;;;5053793;28;20021;-42
2023/01/04 04:15:38;;;;;;;4.53;2.88;;;;;;;;;;5054145;28;20059;-42
2023/01/04 04:18:04;;;;;;;5.13;2.90;;;;;;;;;;5053854;28;20025;-41
2023/01/04 04:20:29;;;;;;;5.05;2.95;;;;;;;;;;5053979;28;20077;-42
2023/01/04 04:22:54;;;;;;;7.07;2.90;;;;;;;;;;5053599;28;20482;-42
2023/01/04 04:25:20;;;;;;;4.65;2.65;;;;;;;;;;5053540;28;20033;-42
2023/01/04 04:27:45;;;;;;;6.32;3.03;;;;;;;;;;5053692;28;20162;-42
2023/01/04 04:30:11;;;;;;;4.18;2.85;;;;;;;;;;5053403;28;20033;-42
2023/01/04 04:32:36;;;;;;;4.60;2.63;;;;;;;;;;5052503;28;20021;-42
2023/01/04 04:35:01;;;;;;;11.57;3.45;;;;;;;;;;5053740;28;20025;-42
2023/01/04 04:37:29;;;;;;;4.40;2.47;;;;;;;;;;5053496;28;20021;-42
2023/01/04 04:39:55;;;;;;;6.00;3.50;;;;;;;;;;5052862;28;20037;-42
2023/01/04 04:42:20;;;;;;;5.57;2.83;;;;;;;;;;5053026;28;20025;-42
2023/01/04 04:44:45;;;;;;;7.75;3.30;;;;;;;;;;5053435;28;20436;-41
2023/01/04 04:47:11;;;;;;;4.65;3.00;;;;;;;;;;5053371;28;20371;-42
2023/01/04 04:49:36;;;;;;;9.95;3.15;;;;;;;;;;5053379;28;20037;-42
2023/01/04 04:52:02;;;;;;;5.43;2.90;;;;;;;;;;5053092;28;20066;-41
2023/01/04 04:54:27;;;;;;;4.47;2.85;;;;;;;;;;5052958;28;20045;-42
2023/01/04 04:56:52;;;;;;;6.10;3.55;;;;;;;;;;5053102;28;20021;-42
2023/01/04 04:59:18;;;;;;;7.57;3.83;;;;;;;;;;5053130;28;20040;-42
2023/01/04 05:01:43;;;;;;;7.30;2.65;;;;;;;;;;5052669;28;20128;-42
2023/01/04 05:04:15;;;;;;;7.65;4.43;;;;;;;;;;5052729;28;20041;-42
2023/01/04 05:06:41;;;;;;;7.97;3.80;;;;;;;;;;5053088;28;20069;-42
2023/01/04 05:09:06;;;;;;;11.18;4.30;;;;;;;;;;5053029;28;20048;-42
2023/01/04 05:14:16;;;;;;;5.68;2.85;;;;;;;;;;5052571;28;20446;-43
2023/01/04 05:16:41;;;;;;;6.53;4.18;;;;;;;;;;5052909;28;20013;-41
2023/01/04 05:19:06;;;;;;;4.10;2.53;;;;;;;;;;5052743;28;20037;-42
2023/01/04 05:21:32;;;;;;;5.07;3.17;;;;;;;;;;5052489;28;20610;-42
2023/01/04 05:23:57;;;;;;;9.02;4.05;;;;;;;;;;5052678;28;20154;-42
2023/01/04 05:26:23;;;;;;;3.55;2.17;;;;;;;;;;5052665;28;20095;-42
2023/01/04 05:28:48;;;;;;;5.30;3.33;;;;;;;;;;5052645;28;20032;-42
2023/01/04 05:31:13;;;;;;;2.97;2.03;;;;;;;;;;5052561;28;20046;-42
2023/01/04 05:33:39;;;;;;;3.10;2.58;;;;;;;;;;5052381;28;20068;-42
2023/01/04 05:36:04;;;;;;;3.97;2.33;;;;;;;;;;5052151;28;20024;-41
2023/01/04 05:38:29;;;;;;;7.40;3.05;;;;;;;;;;5050944;28;20048;-42
2023/01/04 05:40:56;;;;;;;3.40;3.08;;;;;;;;;;5052180;28;20017;-42
2023/01/04 05:43:22;;;;;;;4.90;1.83;;;;;;;;;;5052007;28;20039;-42
2023/01/04 05:45:51;;;;;;;4.65;2.55;;;;;;;;;;5052190;28;20096;-42
2023/01/04 05:48:17;;;;;;;6.10;2.97;;;;;;;;;;5051074;28;20387;-42
2023/01/04 05:50:44;;;;;;;6.63;2.85;;;;;;;;;;5051867;28;20009;-42
2023/01/04 05:53:10;;;;;;;2.92;2.30;;;;;;;;;;5052095;28;20494;-42
2023/01/04 05:55:35;;;;;;;2.78;2.10;;;;;;;;;;5052206;28;20098;-42
2023/01/04 05:58:01;;;;;;;5.57;2.20;;;;;;;;;;5052127;28;20029;-42
2023/01/04 06:00:26;;;;;;;3.17;2.17;;;;;;;;;;5051596;28;20072;-41
2023/01/04 06:02:54;;;;;;;2.13;1.65;;;;;;;;;;5051832;28;20037;-41
2023/01/04 06:05:19;;;;;;;3.15;1.90;;;;;;;;;;5051672;28;20392;-42
2023/01/04 06:07:46;;;;;;;2.70;1.90;;;;;;;;;;5051791;28;20059;-41
2023/01/04 06:10:13;;;;;;;6.90;2.22;;;;;;;;;;5051534;28;20023;-42
2023/01/04 06:12:39;;;;;;;5.43;2.03;;;;;;;;;;5051966;28;20076;-42
2023/01/04 06:15:06;;;;;;;3.47;2.22;;;;;;;;;;5051938;28;20044;-42
2023/01/04 06:17:32;;;;;;;2.20;1.85;;;;;;;;;;5051594;28;20033;-42
2023/01/04 06:19:57;;;;;;;4.40;1.85;;;;;;;;;;5051581;28;20019;-42
2023/01/04 06:22:22;;;;;;;3.85;2.63;;;;;;;;;;5051453;28;20502;-41
2023/01/04 06:24:48;;;;;;;2.88;1.48;;;;;;;;;;5051443;28;20020;-41
2023/01/04 06:27:14;;;;;;;3.00;1.67;;;;;;;;;;5051654;28;20524;-42
2023/01/04 06:29:39;;;;;;;3.92;1.98;;;;;;;;;;5051509;28;20451;-41
2023/01/04 06:32:05;;;;;;;2.78;1.83;;;;;;;;;;5051314;28;20079;-41
2023/01/04 06:34:30;;;;;;;2.63;1.55;;;;;;;;;;5033519;28;20021;-41
2023/01/04 06:36:56;;;;;;;4.55;1.60;;;;;;;;;;5050431;28;20029;-42
2023/01/04 06:39:21;;;;;;;2.55;1.45;;;;;;;;;;5051138;28;20364;-42
2023/01/04 06:41:47;;;;;;;3.05;1.95;;;;;;;;;;5051238;28;20033;-42
2023/01/04 06:44:12;;;;;;;1.98;1.58;;;;;;;;;;5051183;28;20450;-41
2023/01/04 06:46:39;;;;;;;2.47;1.80;;;;;;;;;;5051411;28;20029;-42
2023/01/04 06:49:05;;;;;;;3.05;1.73;;;;;;;;;;5051308;28;20540;-41
2023/01/04 06:51:30;;;;;;;3.10;1.88;;;;;;;;;;5051484;28;20029;-42
2023/01/04 06:53:56;;;;;;;1.63;1.35;;;;;;;;;;5051212;28;20033;-42
2023/01/04 06:56:21;;;;;;;1.83;1.65;;;;;;;;;;5051118;28;20033;-42
2023/01/04 06:58:47;;;;;;;2.40;1.35;;;;;;;;;;5051217;28;20024;-42
2023/01/04 07:01:12;;;;;;;2.20;1.65;;;;;;;;;;5049110;28;20399;-41
2023/01/04 07:03:37;;;;;;;2.22;1.05;;;;;;;;;;5052001;28;20041;-42
2023/01/04 07:06:05;;;;;;;2.78;2.08;;;;;;;;;;5055085;28;20052;-41
2023/01/04 07:08:30;;;;;;;1.95;1.08;;;;;;;;;;5054964;28;20025;-43
2023/01/04 07:10:56;;;;;;;3.30;1.90;;;;;;;;;;5054963;28;20025;-43
2023/01/04 07:13:21;;;;;;;1.88;1.30;;;;;;;;;;5055233;28;20459;-41
2023/01/04 07:15:47;;;;;;;1.40;1.30;;;;;;;;;;5054912;28;20501;-41
2023/01/04 07:18:13;;;;;;;1.30;1.20;;;;;;;;;;5055121;28;20033;-41
2023/01/04 07:20:38;;;;;;;1.63;1.38;;;;;;;;;;5055119;28;20029;-41
2023/01/04 07:23:04;;;;;;;2.10;1.73;;;;;;;;;;5054623;28;20101;-41
2023/01/04 07:25:29;;;;;;;4.20;1.65;;;;;;;;;;5054793;28;20028;-42
2023/01/04 07:27:55;;;;;;;2.83;1.45;;;;;;;;;;5054750;28;20013;-41
2023/01/04 07:30:21;;;;;;;2.38;1.55;;;;;;;;;;5054756;28;20466;-43
2023/01/04 07:32:46;;;;;;;3.58;1.80;;;;;;;;;;5054906;28;20043;-41
2023/01/04 07:35:11;;;;;;;1.45;1.00;;;;;;;;;;5054832;28;20476;-42
2023/01/04 07:37:37;;;;;;;1.20;1.15;;;;;;;;;;5054548;28;20104;-41
2023/01/04 07:40:02;;;;;;;2.72;1.30;;;;;;;;;;5054786;28;20035;-41
2023/01/04 07:42:28;;;;;;;2.35;1.95;;;;;;;;;;5054353;28;20025;-42
2023/01/04 07:44:53;;;;;;;2.15;1.42;;;;;;;;;;5054273;28;20044;-42
2023/01/04 07:47:19;;;;;;;1.95;1.83;;;;;;;;;;5054367;28;20021;-42
2023/01/04 07:49:47;;;;;;;2.83;2.22;;;;;;;;;;5054559;28;20074;-42
2023/01/04 07:52:13;;;;;;;1.83;1.20;;;;;;;;;;5054189;28;20146;-41
2023/01/04 07:54:38;;;;;;;1.17;1.08;;;;;;;;;;5054246;28;20119;-42
2023/01/04 07:57:03;;;;;;;11.15;3.47;;;;;;;;;;5054206;28;20198;-42
2023/01/04 07:59:30;;;;;;;4.00;2.30;;;;;;;;;;5054085;28;20040;-42
2023/01/04 08:01:55;;;;;;;1.55;1.25;;;;;;;;;;5053976;28;20094;-42
2023/01/04 08:04:22;;;;;;;3.60;1.55;;;;;;;;;;5053893;28;20124;-42
2023/01/04 08:06:48;;;;;;;3.63;1.88;;;;;;;;;;5054307;28;20028;-42
2023/01/04 08:09:14;;;;;;;4.53;2.55;;;;;;;;;;5053865;28;20382;-41
2023/01/04 08:11:40;;;;;;;1.65;1.52;;;;;;;;;;5053887;28;20021;-42
2023/01/04 08:14:05;;;;;;;1.27;1.17;;;;;;;;;;5053897;28;20111;-41
2023/01/04 08:16:35;;;;;;;3.00;2.22;;;;;;;;;;5051484;28;20456;-41
2023/01/04 08:19:03;;;;;;;2.00;1.83;;;;;;;;;;5053955;28;20074;-42
2023/01/04 08:21:29;;;;;;;2.22;1.30;;;;;;;;;;5053680;28;20017;-41
2023/01/04 08:23:55;;;;;;;2.40;1.77;;;;;;;;;;5053837;28;20078;-43
2023/01/04 08:26:21;;;;;;;3.03;1.55;;;;;;;;;;5053833;28;20020;-41
2023/01/04 08:28:46;;;;;;;6.30;2.95;;;;;;;;;;5054000;28;20039;-42
2023/01/04 08:31:16;;;;;;;2.20;1.33;;;;;;;;;;5053696;28;20451;-41
2023/01/04 08:33:42;;;;;;;2.58;1.83;;;;;;;;;;5053615;28;20059;-41
2023/01/04 08:36:11;;;;;;;1.98;1.55;;;;;;;;;;5053642;28;20039;-41
2023/01/04 08:38:36;;;;;;;1.95;1.13;;;;;;;;;;5053447;28;20028;-42
2023/01/04 08:41:01;;;;;;;2.20;1.50;;;;;;;;;;5053377;28;20123;-41
2023/01/04 08:43:27;;;;;;;2.08;1.52;;;;;;;;;;5053140;28;20090;-41
2023/01/04 08:45:52;;;;;;;2.47;1.48;;;;;;;;;;5053589;28;20025;-42
2023/01/04 08:48:18;;;;;;;3.42;1.42;;;;;;;;;;5053090;28;20391;-41
2023/01/04 08:50:43;;;;;;;1.45;1.08;;;;;;;;;;5053145;28;20025;-41
2023/01/04 08:53:09;;;;;;;2.08;1.27;;;;;;;;;;5053275;28;20029;-41
2023/01/04 08:55:35;;;;;;;1.55;1.00;;;;;;;;;;5052138;28;20021;-41
2023/01/04 08:58:02;;;;;;;1.33;1.20;;;;;;;;;;5053092;28;20076;-41
2023/01/04 09:00:27;;;;;;;1.45;1.35;;;;;;;;;;5052978;28;20056;-41
2023/01/04 09:02:53;;;;;;;2.47;1.77;;;;;;;;;;5052936;28;20044;-41
2023/01/04 09:05:19;;;;;;;3.13;1.50;;;;;;;;;;5052784;28;20063;-42
2023/01/04 09:07:44;;;;;;;2.05;1.15;;;;;;;;;;5052861;28;20128;-41
2023/01/04 09:10:10;;;;;;;2.63;1.40;;;;;;;;;;5052652;28;20098;-41
2023/01/04 09:12:36;;;;;;;1.27;1.15;;;;;;;;;;5052794;28;20033;-41
2023/01/04 09:15:02;;;;;;;1.95;1.52;;;;;;;;;;5052696;28;20021;-41
2023/01/04 09:17:27;;;;;;;4.78;1.45;;;;;;;;;;5052881;28;20028;-41
2023/01/04 09:19:53;;;;;;;1.08;0.98;;;;;;;;;;5052874;28;20029;-41
2023/01/04 09:22:18;;;;;;;2.28;1.30;;;;;;;;;;5052413;28;20044;-41
2023/01/04 09:24:44;;;;;;;1.95;1.40;;;;;;;;;;5051252;28;20068;-41
2023/01/04 09:27:09;;;;;;;4.10;1.65;;;;;;;;;;5052216;28;20028;-42
2023/01/04 09:29:35;;;;;;;1.48;1.38;;;;;;;;;;5052428;28;20029;-41
2023/01/04 09:32:00;;;;;;;2.45;1.45;;;;;;;;;;5052447;28;20079;-41
2023/01/04 09:34:26;;;;;;;6.00;1.73;;;;;;;;;;5052214;28;20059;-41
2023/01/04 09:36:51;;;;;;;2.55;1.73;;;;;;;;;;5052243;28;20035;-41
2023/01/04 09:39:17;;;;;;;2.75;1.52;;;;;;;;;;5052240;28;20031;-41
2023/01/04 09:42:04;;;;;;;2.05;1.00;;;;;;;;;;5052430;28;20057;-41
2023/01/04 09:44:30;;;;;;;3.40;1.00;;;;;;;;;;5050797;28;20041;-41
2023/01/04 09:47:02;;;;;;;2.25;1.48;;;;;;;;;;5052097;28;20677;-41
2023/01/04 09:49:43;;;;;;;1.35;0.90;;;;;;;;;;5052028;28;20482;-41
2023/01/04 09:52:12;;;;;;;1.52;1.42;;;;;;;;;;5052400;28;20059;-41
2023/01/04 09:54:49;;;;;;;1.52;1.40;;;;;;;;;;5051913;28;20020;-41
2023/01/04 09:57:35;;;;;;;3.53;1.55;;;;;;;;;;5051875;28;20080;-41
2023/01/04 10:00:12;;;;;;;3.97;0.80;;;;;;;;;;5051699;28;20037;-41
2023/01/04 10:02:44;;;;;;;1.33;1.10;;;;;;;;;;5052244;28;20183;-41
2023/01/04 10:05:35;;;;;;;7.20;1.75;;;;;;;;;;5051695;28;20205;-42
2023/01/04 10:08:02;;;;;;;5.72;1.52;;;;;;;;;;5050565;28;20053;-42
2023/01/04 10:10:42;;;;;;;2.03;1.25;;;;;;;;;;5051870;28;20040;-41
2023/01/04 10:13:26;;;;;;;3.08;1.38;;;;;;;;;;5051630;28;20155;-41
2023/01/04 10:16:15;;;;;;;1.02;0.80;;;;;;;;;;5051725;28;20036;-42
2023/01/04 10:18:59;;;;;;;1.55;1.17;;;;;;;;;;5041426;28;20116;-41
2023/01/04 10:21:42;;;;;;;1.85;1.42;;;;;;;;;;5051651;28;20048;-41
2023/01/04 10:24:10;;;;;;;1.23;0.97;;;;;;;;;;5051742;28;20108;-41
2023/01/04 10:26:43;;;;;;;0.85;0.82;;;;;;;;;;5051438;28;20357;-44
2023/01/04 10:29:27;;;;;;;1.98;1.13;;;;;;;;;;5050277;28;20025;-41
2023/01/04 10:32:02;;;;;;;1.80;1.13;;;;;;;;;;5051450;28;20472;-41
2023/01/04 10:34:29;;;;;;;2.10;1.65;;;;;;;;;;5051405;28;20056;-41
2023/01/04 10:36:59;;;;;;;1.40;1.13;;;;;;;;;;5051425;28;20027;-43
2023/01/04 10:39:26;;;;;;;1.33;0.90;;;;;;;;;;5050432;28;20492;-41
2023/01/04 10:41:54;;;;;;;1.05;0.80;;;;;;;;;;5051604;28;20430;-41
2023/01/04 10:44:23;;;;;;;2.28;1.25;;;;;;;;;;5051110;28;20102;-41
2023/01/04 10:46:49;;;;;;;1.10;1.00;;;;;;;;;;5051663;28;20078;-41
2023/01/04 10:49:33;;;;;;;0.93;0.70;;;;;;;;;;5051156;28;20104;-41
2023/01/04 10:52:24;;;;;;;0.95;0.75;;;;;;;;;;5051233;28;20036;-41
2023/01/04 10:54:53;;;;;;;2.63;1.08;;;;;;;;;;5049912;28;20045;-42
2023/01/04 10:57:29;;;;;;;0.77;0.63;;;;;;;;;;5051351;28;20017;-41
2023/01/04 10:59:57;;;;;;;1.75;1.60;;;;;;;;;;5051078;28;20390;-41
2023/01/04 11:02:31;;;;;;;1.08;0.98;;;;;;;;;;5051030;28;20072;-42
2023/01/04 11:05:06;;;;;;;1.67;0.90;;;;;;;;;;5051033;28;20048;-42
2023/01/04 11:07:40;;;;;;;2.10;1.90;;;;;;;;;;5051186;28;20033;-42
2023/01/04 11:10:11;;;;;;;2.65;1.05;;;;;;;;;;5050980;28;20036;-41
2023/01/04 11:12:37;;;;;;;1.77;1.23;;;;;;;;;;5051132;28;20033;-41
2023/01/04 11:15:03;;;;;;;1.45;1.15;;;;;;;;;;5051114;28;20024;-41
2023/01/04 11:17:29;;;;;;;7.53;1.40;;;;;;;;;;5051269;28;20057;-41
2023/01/04 11:19:55;;;;;;;1.83;1.17;;;;;;;;;;5051250;28;20348;-41
2023/01/04 11:22:24;;;;;;;1.85;1.10;;;;;;;;;;5051091;28;20091;-41
2023/01/04 11:24:52;;;;;;;1.95;1.50;;;;;;;;;;5050856;28;20562;-41
2023/01/04 11:27:20;;;;;;;1.45;1.05;;;;;;;;;;5050884;28;20430;-41
2023/01/04 11:29:51;;;;;;;1.45;1.33;;;;;;;;;;5050980;28;20017;-42
2023/01/04 11:32:23;;;;;;;1.38;1.02;;;;;;;;;;5050698;28;20053;-42
2023/01/04 11:34:51;;;;;;;3.80;1.65;;;;;;;;;;5050972;28;20076;-42
2023/01/04 11:37:24;;;;;;;3.28;1.80;;;;;;;;;;5049559;28;20052;-42
2023/01/04 11:39:50;;;;;;;3.08;1.42;;;;;;;;;;5050733;28;20120;-41
2023/01/04 11:42:19;;;;;;;1.73;1.42;;;;;;;;;;5049813;28;20428;-41
2023/01/04 11:44:56;;;;;;;2.88;1.98;;;;;;;;;;5050545;28;20037;-41
2023/01/04 11:47:27;;;;;;;1.85;0.95;;;;;;;;;;5050676;28;20479;-41
2023/01/04 11:49:52;;;;;;;2.38;1.42;;;;;;;;;;5051595;28;20471;-42
2023/01/04 11:52:29;;;;;;;1.25;1.00;;;;;;;;;;5054320;28;20023;-42
2023/01/04 11:54:55;;;;;;;2.03;1.40;;;;;;;;;;5054230;28;20143;-41
2023/01/04 11:57:20;;;;;;;1.55;0.90;;;;;;;;;;5054187;28;20021;-41
2023/01/04 12:00:06;;;;;;;2.35;1.15;;;;;;;;;;5054340;28;20089;-42
2023/01/04 12:02:31;;;;;;;5.47;1.48;;;;;;;;;;5054376;28;20045;-41
2023/01/04 12:04:57;;;;;;;1.83;1.08;;;;;;;;;;5052595;28;20099;-43
2023/01/04 12:07:32;;;;;;;2.15;1.13;;;;;;;;;;5054243;28;20063;-41
2023/01/04 12:09:59;;;;;;;1.33;1.23;;;;;;;;;;5053907;28;20033;-42
2023/01/04 12:12:30;;;;;;;3.08;2.28;;;;;;;;;;5052692;28;20036;-42
2023/01/04 12:14:58;;;;;;;2.60;1.20;;;;;;;;;;5053786;28;20044;-41
2023/01/04 12:17:29;;;;;;;1.58;0.93;;;;;;;;;;5053785;28;20501;-42
2023/01/04 12:19:56;;;;;;;1.67;1.08;;;;;;;;;;5053765;28;20044;-41
2023/01/04 12:22:37;;;;;;;1.20;1.10;;;;;;;;;;5053890;28;20108;-41
2023/01/04 12:25:05;;;;;;;1.38;1.08;;;;;;;;;;5053828;28;20045;-42
2023/01/04 12:27:30;;;;;;;2.53;1.60;;;;;;;;;;5053645;28;20029;-43
2023/01/04 12:30:04;;;;;;;2.00;1.00;;;;;;;;;;5053562;28;20548;-41
2023/01/04 12:32:29;;;;;;;1.33;1.23;;;;;;;;;;5053444;28;20554;-41
2023/01/04 12:34:55;;;;;;;4.13;1.50;;;;;;;;;;5053380;28;20167;-41
2023/01/04 12:37:45;;;;;;;1.30;1.20;;;;;;;;;;5053325;28;20078;-41
2023/01/04 12:40:43;;;;;;;3.13;1.13;;;;;;;;;;5053677;28;20479;-41
2023/01/04 12:43:14;;;;;;;2.08;1.23;;;;;;;;;;5040999;28;20043;-41
2023/01/04 12:45:41;;;;;;;1.80;0.90;;;;;;;;;;5053374;28;20044;-41
2023/01/04 12:51:16;;;;;;;2.17;1.33;;;;;;;;;;5053445;28;20075;-41
2023/01/04 12:53:48;;;;;;;2.00;1.35;;;;;;;;;;5053198;28;20490;-41
2023/01/04 12:56:14;;;;;;;1.45;1.00;;;;;;;;;;5053325;28;20029;-42
2023/01/04 12:58:41;;;;;;;1.45;0.82;;;;;;;;;;5053119;28;20021;-41
2023/01/04 13:01:08;;;;;;;0.75;0.73;;;;;;;;;;5051059;28;20057;-41
2023/01/04 13:03:34;;;;;;;22.92;14.30;;;;;;;;;;5052942;28;20083;-41
2023/01/04 13:06:01;;;;;;;3.20;2.63;;;;;;;;;;5052818;28;20029;-41
2023/01/04 13:08:32;;;;;;;2.92;1.00;;;;;;;;;;5052861;28;20021;-41
2023/01/04 13:10:58;;;;;;;11.68;2.72;;;;;;;;;;5052714;28;20478;-41
2023/01/04 13:13:37;;;;;;;8.55;2.30;;;;;;;;;;5052825;28;20021;-42
2023/01/04 13:16:12;;;;;;;0.90;0.90;;;;;;;;;;5052781;28;20033;-43
2023/01/04 13:18:42;;;;;;;20.30;10.70;;;;;;;;;;5052568;28;20538;-41
2023/01/04 13:21:13;;;;;;;5.25;4.75;;;;;;;;;;5052649;28;20044;-41
2023/01/04 13:23:39;;;;;;;2.22;1.42;;;;;;;;;;5052611;28;20443;-41
2023/01/04 13:26:23;;;;;;;5.05;1.35;;;;;;;;;;5052541;28;20112;-41
2023/01/04 13:28:48;;;;;;;2.33;1.65;;;;;;;;;;5051294;28;20467;-42
2023/01/04 13:31:14;;;;;;;1.98;1.33;;;;;;;;;;5052309;28;20017;-41
2023/01/04 13:33:44;;;;;;;4.97;1.52;;;;;;;;;;5052381;28;20029;-42
2023/01/04 13:36:11;;;;;;;1.40;1.20;;;;;;;;;;5052641;28;20095;-42
2023/01/04 13:38:38;;;;;;;1.42;1.10;;;;;;;;;;5052157;28;20013;-42
2023/01/04 13:41:16;;;;;;;7.53;1.00;;;;;;;;;;5052458;28;20451;-41
2023/01/04 13:44:02;;;;;;;2.70;1.42;;;;;;;;;;5052289;28;20032;-41
2023/01/04 13:46:28;;;;;;;2.05;1.00;;;;;;;;;;5040447;28;20041;-42
2023/01/04 13:48:57;;;;;;;1.58;1.10;;;;;;;;;;5052196;28;20081;-41
2023/01/04 13:51:25;;;;;;;1.73;1.25;;;;;;;;;;5052027;28;20029;-42
2023/01/04 13:53:52;;;;;;;1.45;1.13;;;;;;;;;;5051976;28;20029;-41
2023/01/04 13:56:19;;;;;;;1.95;1.42;;;;;;;;;;5051903;28;20625;-42
2023/01/04 13:58:44;;;;;;;1.80;0.90;;;;;;;;;;5052231;28;20531;-42
2023/01/04 14:01:10;;;;;;;4.28;1.35;;;;;;;;;;5051608;28;20124;-41
2023/01/04 14:03:40;;;;;;;1.67;0.98;;;;;;;;;;5051807;28;20399;-42
2023/01/04 14:06:08;;;;;;;1.38;1.02;;;;;;;;;;5052058;28;20095;-41
2023/01/04 14:08:35;;;;;;;1.40;1.30;;;;;;;;;;5051973;28;20021;-41
2023/01/04 14:11:02;;;;;;;1.75;0.90;;;;;;;;;;5051612;28;20048;-41
2023/01/04 14:13:28;;;;;;;1.13;0.90;;;;;;;;;;5051666;28;20024;-42
2023/01/04 14:16:13;;;;;;;1.63;1.05;;;;;;;;;;5051672;28;20032;-41
2023/01/04 14:18:38;;;;;;;3.60;1.17;;;;;;;;;;5050682;28;20032;-42
2023/01/04 14:21:12;;;;;;;1.33;0.85;;;;;;;;;;5051489;28;20013;-41
2023/01/04 14:23:38;;;;;;;3.88;1.83;;;;;;;;;;5050176;28;20372;-41
2023/01/04 14:26:04;;;;;;;1.10;1.00;;;;;;;;;;5051822;28;20036;-41
2023/01/04 14:28:35;;;;;;;1.30;1.10;;;;;;;;;;5051371;28;20372;-41
2023/01/04 14:31:02;;;;;;;1.55;1.02;;;;;;;;;;5051450;28;20032;-42
2023/01/04 14:33:40;;;;;;;10.35;1.30;;;;;;;;;;5051655;28;20383;-42
2023/01/04 14:36:06;;;;;;;1.65;0.93;;;;;;;;;;5051708;28;20091;-42
2023/01/04 14:38:34;;;;;;;1.48;0.90;;;;;;;;;;5051342;28;20368;-41
2023/01/04 14:41:11;;;;;;;0.60;0.60;;;;;;;;;;5051331;28;20036;-41
2023/01/04 14:43:43;;;;;;;2.28;0.93;;;;;;;;;;5051057;28;20025;-41
2023/01/04 14:46:09;;;;;;;4.82;0.93;;;;;;;;;;5050088;28;20493;-42
2023/01/04 14:48:35;;;;;;;1.27;1.05;;;;;;;;;;5051247;28;20112;-41
2023/01/04 14:51:03;;;;;;;1.70;1.10;;;;;;;;;;5051197;28;20509;-41
2023/01/04 14:53:30;;;;;;;3.63;1.23;;;;;;;;;;5051459;28;20455;-41
2023/01/04 14:55:56;;;;;;;0.90;0.85;;;;;;;;;;5051293;28;20037;-42
2023/01/04 14:58:22;;;;;;;1.13;1.05;;;;;;;;;;5051158;28;20492;-41
2023/01/04 15:00:48;;;;;;;0.77;0.73;;;;;;;;;;5050981;28;20052;-41
2023/01/04 15:03:17;;;;;;;2.05;0.90;;;;;;;;;;5051238;28;20039;-41
2023/01/04 15:05:44;;;;;;;1.55;1.02;;;;;;;;;;5051092;28;20041;-42
2023/01/04 15:08:10;;;;;;;2.03;1.40;;;;;;;;;;5051082;28;20065;-41
2023/01/04 15:10:37;;;;;;;1.85;1.17;;;;;;;;;;5049700;28;20029;-42
2023/01/04 15:13:03;;;;;;;1.38;0.95;;;;;;;;;;5051074;28;20021;-41
2023/01/04 15:15:29;;;;;;;2.35;1.88;;;;;;;;;;5051290;28;20052;-41
2023/01/04 15:17:54;;;;;;;1.63;1.15;;;;;;;;;;5051103;28;20506;-42
2023/01/04 15:20:20;;;;;;;1.13;1.10;;;;;;;;;;5050828;28;20063;-41
2023/01/04 15:22:45;;;;;;;5.20;2.45;;;;;;;;;;5051242;28;20020;-41
2023/01/04 15:25:11;;;;;;;1.48;1.23;;;;;;;;;;5052355;28;20040;-42
2023/01/04 15:27:36;;;;;;;1.98;0.90;;;;;;;;;;5054676;28;20056;-42
2023/01/04 15:30:03;;;;;;;2.65;1.20;;;;;;;;;;5054771;28;20043;-41
2023/01/04 15:32:30;;;;;;;3.17;1.10;;;;;;;;;;5054570;28;20140;-41
2023/01/04 15:34:56;;;;;;;1.65;1.30;;;;;;;;;;5054576;28;20483;-41